createdAt,value
2017-02-06T00:01:06.705Z,60.11
2017-02-06T00:03:17.440Z,60.14
2017-02-06T00:05:29.948Z,60.12
2017-02-06T00:07:42.497Z,60.08
2017-02-06T00:09:54.660Z,60.04
2017-02-06T00:12:07.666Z,60.03
2017-02-06T00:14:26.325Z,60.06
2017-02-06T00:16:33.860Z,60.07
2017-02-06T00:18:50.347Z,60.04
2017-02-06T00:21:02.649Z,60.03
2017-02-06T00:23:15.083Z,60.02
2017-02-06T00:25:27.371Z,60
2017-02-06T00:27:39.605Z,59.98
2017-02-06T00:29:51.750Z,60.04
2017-02-06T00:32:04.077Z,60.03
2017-02-06T00:34:16.431Z,60.01
2017-02-06T00:36:28.820Z,60.04
2017-02-06T00:38:41.308Z,60.05
2017-02-06T00:40:53.554Z,60.07
2017-02-06T00:43:06.137Z,60.07
2017-02-06T00:45:18.684Z,60.09
2017-02-06T00:47:30.991Z,60.09
2017-02-06T00:49:43.298Z,60.09
2017-02-06T00:51:55.537Z,60.05
2017-02-06T00:54:07.924Z,60.03
2017-02-06T00:56:20.182Z,60.06
2017-02-06T00:58:32.382Z,60.08
2017-02-06T01:00:44.796Z,60.08
2017-02-06T01:02:57.012Z,60.06
2017-02-06T01:05:09.222Z,60.06
2017-02-06T01:07:21.464Z,60.05
2017-02-06T01:09:33.800Z,60.05
2017-02-06T01:11:46.199Z,60.05
2017-02-06T01:13:58.790Z,60.01
2017-02-06T01:16:11.079Z,59.98
2017-02-06T01:18:23.795Z,59.97
2017-02-06T01:20:36.072Z,59.98
2017-02-06T01:22:48.521Z,60
2017-02-06T01:25:00.722Z,60.02
2017-02-06T01:27:13.042Z,60
2017-02-06T01:29:25.305Z,60
2017-02-06T01:31:37.460Z,60.01
2017-02-06T01:33:49.751Z,60.03
2017-02-06T01:36:01.941Z,60.04
2017-02-06T01:38:14.130Z,60.06
2017-02-06T01:40:26.349Z,60.08
2017-02-06T01:42:33.584Z,60.11
2017-02-06T01:44:45.852Z,60.13
2017-02-06T01:46:58.070Z,60.11
2017-02-06T01:49:10.428Z,60.08
2017-02-06T01:51:23.372Z,60.09
2017-02-06T01:53:35.795Z,60.12
2017-02-06T01:55:48.055Z,60.14
2017-02-06T01:58:00.214Z,60.12
2017-02-06T02:00:12.589Z,60.11
2017-02-06T02:02:24.992Z,60.11
2017-02-06T02:04:37.131Z,60.12
2017-02-06T02:06:49.578Z,60.11
2017-02-06T02:09:01.704Z,60.13
2017-02-06T02:11:13.889Z,60.16
2017-02-06T02:13:26.169Z,60.13
2017-02-06T02:15:38.287Z,60.14
2017-02-06T02:17:50.511Z,60.14
2017-02-06T02:19:57.952Z,60.17
2017-02-06T02:22:05.151Z,60.16
2017-02-06T02:24:17.463Z,60.19
2017-02-06T02:26:30.456Z,60.2
2017-02-06T02:28:42.870Z,60.21
2017-02-06T02:30:55.037Z,60.24
2017-02-06T02:33:07.194Z,60.25
2017-02-06T02:35:14.434Z,60.26
2017-02-06T02:37:21.779Z,60.23
2017-02-06T02:39:34.013Z,60.2
2017-02-06T02:41:46.373Z,60.22
2017-02-06T02:43:53.746Z,60.2
2017-02-06T02:46:06.077Z,60.2
2017-02-06T02:48:18.440Z,60.18
2017-02-06T02:50:30.606Z,60.18
2017-02-06T02:52:42.837Z,60.21
2017-02-06T02:54:55.007Z,60.25
2017-02-06T02:57:07.294Z,60.24
2017-02-06T02:59:19.878Z,60.28
2017-02-06T03:01:32.612Z,60.29
2017-02-06T03:03:44.953Z,60.29
2017-02-06T03:05:57.397Z,60.29
2017-02-06T03:08:09.750Z,60.31
2017-02-06T03:10:16.942Z,60.32
2017-02-06T03:12:29.376Z,60.33
2017-02-06T03:14:41.522Z,60.33
2017-02-06T03:16:53.695Z,60.3
2017-02-06T03:19:05.948Z,60.28
2017-02-06T03:21:18.320Z,60.24
2017-02-06T03:23:30.747Z,60.26
2017-02-06T03:25:42.901Z,60.3
2017-02-06T03:27:55.070Z,60.32
2017-02-06T03:30:07.406Z,60.32
2017-02-06T03:32:19.674Z,60.37
2017-02-06T03:34:32.048Z,60.39
2017-02-06T03:36:44.679Z,60.39
2017-02-06T03:38:57.247Z,60.37
2017-02-06T03:41:09.669Z,60.34
2017-02-06T03:43:21.923Z,60.34
2017-02-06T03:45:34.150Z,60.33
2017-02-06T03:47:41.467Z,60.32
2017-02-06T03:49:53.819Z,60.31
2017-02-06T03:52:06.113Z,60.3
2017-02-06T03:54:18.287Z,60.3
2017-02-06T03:56:30.640Z,60.33
2017-02-06T03:58:42.973Z,60.33
2017-02-06T04:00:55.188Z,60.34
2017-02-06T04:03:07.435Z,60.36
2017-02-06T04:05:19.842Z,60.36
2017-02-06T04:07:30.420Z,60.38
2017-02-06T04:09:42.808Z,60.36
2017-02-06T04:11:55.449Z,60.33
2017-02-06T04:14:08.012Z,60.33
2017-02-06T04:16:20.407Z,60.33
2017-02-06T04:18:32.870Z,60.33
2017-02-06T04:20:45.213Z,60.3
2017-02-06T04:22:57.432Z,60.3
2017-02-06T04:25:09.713Z,60.3
2017-02-06T04:27:16.984Z,60.31
2017-02-06T04:29:29.209Z,60.34
2017-02-06T04:31:41.423Z,60.35
2017-02-06T04:33:53.691Z,60.36
2017-02-06T04:36:05.984Z,60.35
2017-02-06T04:38:18.233Z,60.37
2017-02-06T04:40:25.453Z,60.42
2017-02-06T04:42:37.646Z,60.41
2017-02-06T04:44:49.819Z,60.4
2017-02-06T04:47:02.373Z,60.4
2017-02-06T04:49:15.034Z,60.41
2017-02-06T04:51:27.352Z,60.43
2017-02-06T04:53:39.941Z,60.45
2017-02-06T04:55:50.942Z,60.43
2017-02-06T04:58:03.185Z,60.45
2017-02-06T05:00:15.615Z,60.45
2017-02-06T05:02:28.004Z,60.46
2017-02-06T05:04:40.248Z,60.46
2017-02-06T05:06:52.475Z,60.46
2017-02-06T05:09:04.986Z,60.46
2017-02-06T05:11:17.393Z,60.48
2017-02-06T05:13:29.743Z,60.47
2017-02-06T05:15:41.993Z,60.47
2017-02-06T05:17:54.154Z,60.5
2017-02-06T05:20:06.672Z,60.52
2017-02-06T05:22:19.138Z,60.52
2017-02-06T05:24:31.718Z,60.49
2017-02-06T05:26:44.253Z,60.46
2017-02-06T05:28:56.508Z,60.47
2017-02-06T05:31:03.821Z,60.49
2017-02-06T05:33:16.211Z,60.46
2017-02-06T05:35:28.559Z,60.42
2017-02-06T05:37:40.753Z,60.41
2017-02-06T05:39:48.126Z,60.42
2017-02-06T05:42:00.559Z,60.4
2017-02-06T05:44:12.946Z,60.39
2017-02-06T05:46:25.316Z,60.4
2017-02-06T05:48:37.526Z,60.43
2017-02-06T05:50:49.727Z,60.45
2017-02-06T05:53:01.902Z,60.5
2017-02-06T05:55:09.173Z,60.52
2017-02-06T05:57:21.568Z,60.54
2017-02-06T05:59:34.012Z,60.55
2017-02-06T06:01:46.695Z,60.57
2017-02-06T06:03:58.962Z,60.56
2017-02-06T06:06:11.355Z,60.6
2017-02-06T06:08:23.798Z,60.62
2017-02-06T06:10:36.006Z,60.61
2017-02-06T06:12:43.377Z,60.59
2017-02-06T06:14:55.610Z,60.56
2017-02-06T06:17:07.980Z,60.55
2017-02-06T06:19:20.265Z,60.54
2017-02-06T06:21:32.547Z,60.54
2017-02-06T06:23:44.767Z,60.54
2017-02-06T06:25:57.056Z,60.52
2017-02-06T06:28:09.434Z,60.52
2017-02-06T06:30:21.717Z,60.52
2017-02-06T06:32:34.049Z,60.5
2017-02-06T06:34:46.737Z,60.49
2017-02-06T06:36:54.714Z,60.48
2017-02-06T06:39:07.071Z,60.45
2017-02-06T06:41:19.607Z,60.44
2017-02-06T06:43:31.896Z,60.44
2017-02-06T06:45:44.080Z,60.42
2017-02-06T06:47:56.417Z,60.42
2017-02-06T06:50:08.616Z,60.39
2017-02-06T06:52:21.041Z,60.38
2017-02-06T06:56:43.943Z,60.26
2017-02-06T06:58:56.197Z,60.18
2017-02-06T07:01:08.484Z,60.15
2017-02-06T07:03:20.978Z,60.13
2017-02-06T07:05:33.223Z,60.09
2017-02-06T07:07:45.552Z,60.03
2017-02-06T07:09:52.977Z,59.97
2017-02-06T07:12:05.591Z,59.9
2017-02-06T07:14:17.818Z,59.82
2017-02-06T07:16:25.018Z,59.78
2017-02-06T07:18:37.253Z,59.71
2017-02-06T07:20:49.522Z,59.67
2017-02-06T07:22:56.850Z,59.6
2017-02-06T07:25:09.194Z,59.52
2017-02-06T07:27:21.731Z,59.45
2017-02-06T07:29:34.267Z,59.37
2017-02-06T07:31:46.660Z,59.29
2017-02-06T07:33:59.893Z,59.21
2017-02-06T07:36:12.405Z,59.15
2017-02-06T07:38:24.705Z,59.13
2017-02-06T07:40:37.433Z,59.08
2017-02-06T07:42:49.883Z,59
2017-02-06T07:45:02.399Z,58.92
2017-02-06T07:47:15.388Z,58.8
2017-02-06T07:49:28.058Z,58.72
2017-02-06T07:51:40.464Z,58.61
2017-02-06T07:53:52.728Z,58.51
2017-02-06T07:56:05.018Z,58.32
2017-02-06T07:58:17.442Z,58.19
2017-02-06T08:00:29.731Z,58.02
2017-02-06T08:02:42.056Z,57.8
2017-02-06T08:04:54.330Z,57.6
2017-02-06T08:07:06.635Z,57.46
2017-02-06T08:09:19.059Z,57.51
2017-02-06T08:11:31.402Z,57.66
2017-02-06T08:13:43.753Z,57.79
2017-02-06T08:15:56.271Z,57.82
2017-02-06T08:18:08.547Z,57.71
2017-02-06T08:20:21.064Z,57.48
2017-02-06T08:22:33.467Z,57.22
2017-02-06T08:24:45.758Z,56.92
2017-02-06T08:26:58.134Z,56.7
2017-02-06T08:29:10.461Z,56.58
2017-02-06T08:31:22.909Z,56.51
2017-02-06T08:33:35.327Z,56.45
2017-02-06T08:35:47.550Z,56.31
2017-02-06T08:37:59.781Z,56.06
2017-02-06T08:40:07.154Z,55.92
2017-02-06T08:42:20.456Z,55.9
2017-02-06T08:44:32.930Z,55.92
2017-02-06T08:46:44.919Z,56.11
2017-02-06T08:48:57.616Z,56.19
2017-02-06T08:51:09.892Z,56.15
2017-02-06T08:53:17.322Z,56.16
2017-02-06T08:55:29.713Z,56.08
2017-02-06T08:57:41.924Z,55.98
2017-02-06T08:59:54.154Z,55.88
2017-02-06T09:02:06.712Z,55.65
2017-02-06T09:04:19.134Z,55.59
2017-02-06T09:06:31.472Z,55.75
2017-02-06T09:08:44.077Z,55.94
2017-02-06T09:10:56.423Z,56.29
2017-02-06T09:13:08.633Z,56.55
2017-02-06T09:15:21.040Z,56.71
2017-02-06T09:17:33.318Z,56.88
2017-02-06T09:19:45.602Z,56.71
2017-02-06T09:21:57.820Z,56.42
2017-02-06T09:24:09.979Z,56.3
2017-02-06T09:26:22.319Z,56.23
2017-02-06T09:28:34.629Z,56.06
2017-02-06T09:30:47.142Z,55.98
2017-02-06T09:32:59.445Z,55.92
2017-02-06T09:35:06.733Z,55.79
2017-02-06T09:37:19.164Z,55.74
2017-02-06T09:39:31.471Z,55.84
2017-02-06T09:41:43.731Z,55.82
2017-02-06T09:44:03.463Z,55.88
2017-02-06T09:46:31.431Z,55.84
2017-02-06T09:48:51.596Z,55.96
2017-02-06T09:51:09.563Z,56.23
2017-02-06T09:53:22.845Z,56.36
2017-02-06T09:55:35.272Z,56.54
2017-02-06T09:57:49.493Z,56.65
2017-02-06T10:00:02.334Z,56.75
2017-02-06T10:02:14.670Z,56.62
2017-02-06T10:04:28.102Z,56.69
2017-02-06T10:06:45.370Z,56.69
2017-02-06T10:09:00.793Z,56.77
2017-02-06T10:11:13.461Z,56.95
2017-02-06T10:13:26.020Z,57.02
2017-02-06T10:15:38.235Z,56.99
2017-02-06T10:17:50.737Z,57.09
2017-02-06T10:19:58.045Z,57.3
2017-02-06T10:22:05.420Z,57.4
2017-02-06T10:24:17.689Z,57.23
2017-02-06T10:26:30.022Z,56.98
2017-02-06T10:28:42.343Z,56.98
2017-02-06T10:30:54.653Z,56.94
2017-02-06T10:33:06.957Z,56.88
2017-02-06T10:35:14.315Z,56.74
2017-02-06T10:37:26.652Z,56.56
2017-02-06T10:39:39.113Z,56.42
2017-02-06T10:41:51.547Z,56.4
2017-02-06T10:44:03.875Z,56.42
2017-02-06T10:46:16.172Z,56.67
2017-02-06T10:48:28.434Z,56.67
2017-02-06T10:50:40.783Z,56.63
2017-02-06T10:52:53.059Z,56.73
2017-02-06T10:55:05.481Z,56.97
2017-02-06T10:57:17.804Z,57.04
2017-02-06T10:59:30.172Z,57.09
2017-02-06T11:01:42.451Z,56.99
2017-02-06T11:03:54.725Z,57.01
2017-02-06T11:06:07.114Z,57.17
2017-02-06T11:08:19.441Z,57.14
2017-02-06T11:10:26.750Z,57.03
2017-02-06T11:12:39.110Z,57.11
2017-02-06T11:14:51.339Z,57.28
2017-02-06T11:16:58.764Z,57.37
2017-02-06T11:19:10.962Z,57.2
2017-02-06T11:21:23.199Z,56.94
2017-02-06T11:23:35.800Z,56.8
2017-02-06T11:25:48.192Z,56.49
2017-02-06T11:28:00.556Z,56.33
2017-02-06T11:30:12.723Z,56.1
2017-02-06T11:32:25.061Z,55.73
2017-02-06T11:34:32.282Z,55.5
2017-02-06T11:36:44.699Z,55.56
2017-02-06T11:38:57.089Z,55.78
2017-02-06T11:41:09.440Z,55.8
2017-02-06T11:43:16.783Z,55.89
2017-02-06T11:45:29.488Z,55.78
2017-02-06T11:47:41.748Z,55.55
2017-02-06T11:49:54.180Z,55.31
2017-02-06T11:52:06.375Z,54.91
2017-02-06T11:54:18.729Z,54.66
2017-02-06T11:56:31.144Z,54.59
2017-02-06T11:58:43.426Z,54.44
2017-02-06T12:00:55.723Z,54.56
2017-02-06T12:03:08.094Z,54.87
2017-02-06T12:05:20.440Z,55.32
2017-02-06T12:07:32.764Z,55.48
2017-02-06T12:09:45.129Z,55.46
2017-02-06T12:11:57.514Z,55.41
2017-02-06T12:14:09.675Z,55.65
2017-02-06T12:16:21.946Z,55.98
2017-02-06T12:18:34.792Z,56.09
2017-02-06T12:20:47.409Z,56.13
2017-02-06T12:23:00.230Z,56.05
2017-02-06T12:25:12.448Z,55.84
2017-02-06T12:27:24.614Z,55.14
2017-02-06T12:29:36.879Z,54.59
2017-02-06T12:31:44.501Z,54.61
2017-02-06T12:33:57.934Z,54.79
2017-02-06T12:36:10.831Z,55.11
2017-02-06T12:38:23.682Z,55.13
2017-02-06T12:40:36.525Z,55.19
2017-02-06T12:42:49.201Z,55.21
2017-02-06T12:45:01.817Z,55.09
2017-02-06T12:47:14.745Z,55.15
2017-02-06T12:49:27.000Z,55.19
2017-02-06T12:51:39.712Z,55.41
2017-02-06T12:53:52.326Z,55.56
2017-02-06T12:56:04.754Z,55.73
2017-02-06T12:58:19.939Z,55.97
2017-02-06T13:00:34.340Z,56.39
2017-02-06T13:02:48.056Z,56.56
2017-02-06T13:05:01.243Z,56.58
2017-02-06T13:07:15.034Z,56.68
2017-02-06T13:09:28.035Z,56.83
2017-02-06T13:11:40.892Z,56.98
2017-02-06T13:13:54.669Z,57
2017-02-06T13:16:09.982Z,57.08
2017-02-06T13:18:23.244Z,57.08
2017-02-06T13:20:36.728Z,57.07
2017-02-06T13:22:50.577Z,57.15
2017-02-06T13:25:03.371Z,57.36
2017-02-06T13:27:16.179Z,57.52
2017-02-06T13:29:30.352Z,57.58
2017-02-06T13:31:39.609Z,57.55
2017-02-06T13:33:52.215Z,57.59
2017-02-06T13:36:05.424Z,57.63
2017-02-06T13:38:18.744Z,57.74
2017-02-06T13:40:32.951Z,57.94
2017-02-06T13:42:46.043Z,58.06
2017-02-06T13:44:58.410Z,58.15
2017-02-06T13:47:05.785Z,58.3
2017-02-06T13:49:18.219Z,58.4
2017-02-06T13:51:30.623Z,58.47
2017-02-06T13:53:43.040Z,58.53
2017-02-06T13:55:55.217Z,58.62
2017-02-06T13:58:07.648Z,58.74
2017-02-06T14:00:20.026Z,58.89
2017-02-06T14:02:32.548Z,59.06
2017-02-06T14:04:44.864Z,59.12
2017-02-06T14:06:57.076Z,59.18
2017-02-06T14:09:09.252Z,59.22
2017-02-06T14:11:21.688Z,59.27
2017-02-06T14:13:33.948Z,59.34
2017-02-06T14:15:46.423Z,59.33
2017-02-06T14:17:58.768Z,59.34
2017-02-06T14:20:11.085Z,59.26
2017-02-06T14:22:23.320Z,59.17
2017-02-06T14:24:35.644Z,59.11
2017-02-06T14:26:47.995Z,59.03
2017-02-06T14:29:00.398Z,58.94
2017-02-06T14:31:12.660Z,58.83
2017-02-06T14:33:25.093Z,58.8
2017-02-06T14:35:37.432Z,58.8
2017-02-06T14:37:49.669Z,58.73
2017-02-06T14:40:02.337Z,58.58
2017-02-06T14:42:09.821Z,58.42
2017-02-06T14:44:22.047Z,58.36
2017-02-06T14:46:34.355Z,58.18
2017-02-06T14:48:46.702Z,58.04
2017-02-06T14:50:59.013Z,58.04
2017-02-06T14:53:11.287Z,58.11
2017-02-06T14:55:23.625Z,58.14
2017-02-06T14:57:31.054Z,58.12
2017-02-06T14:59:43.269Z,57.95
2017-02-06T15:01:55.792Z,57.83
2017-02-06T15:04:08.220Z,57.78
2017-02-06T15:06:20.623Z,57.76
2017-02-06T15:08:32.899Z,57.85
2017-02-06T15:10:45.334Z,57.98
2017-02-06T15:12:52.955Z,58.05
2017-02-06T15:15:05.356Z,58.14
2017-02-06T15:17:17.575Z,58.3
2017-02-06T15:19:30.011Z,58.45
2017-02-06T15:21:42.335Z,58.51
2017-02-06T15:23:54.665Z,58.56
2017-02-06T15:26:06.898Z,58.63
2017-02-06T15:28:19.111Z,58.57
2017-02-06T15:30:31.888Z,58.24
2017-02-06T15:32:44.115Z,57.94
2017-02-06T15:34:56.312Z,58.05
2017-02-06T15:37:08.606Z,58.07
2017-02-06T15:39:23.601Z,58.1
2017-02-06T15:41:36.084Z,58.21
2017-02-06T15:43:48.447Z,58.25
2017-02-06T15:46:00.803Z,58.39
2017-02-06T15:48:13.694Z,58.52
2017-02-06T15:50:26.049Z,58.64
2017-02-06T15:52:38.656Z,58.74
2017-02-06T15:54:50.934Z,58.88
2017-02-06T15:57:03.196Z,59.03
2017-02-06T15:59:15.389Z,59.15
2017-02-06T16:01:27.830Z,59.29
2017-02-06T16:03:40.183Z,59.42
2017-02-06T16:05:52.545Z,59.56
2017-02-06T16:08:04.967Z,59.71
2017-02-06T16:10:17.350Z,59.91
2017-02-06T16:12:29.563Z,60.13
2017-02-06T16:14:41.824Z,60.32
2017-02-06T16:16:54.144Z,60.48
2017-02-06T16:19:06.647Z,60.59
2017-02-06T16:21:19.065Z,60.71
2017-02-06T16:23:26.408Z,60.82
2017-02-06T16:25:38.751Z,60.87
2017-02-06T16:27:51.103Z,60.94
2017-02-06T16:30:03.575Z,61
2017-02-06T16:32:16.598Z,61.11
2017-02-06T16:34:28.994Z,61.21
2017-02-06T16:36:41.908Z,61.31
2017-02-06T16:38:54.172Z,61.42
2017-02-06T16:41:06.663Z,61.49
2017-02-06T16:43:18.913Z,61.54
2017-02-06T16:45:31.087Z,61.57
2017-02-06T16:47:43.393Z,61.63
2017-02-06T16:49:55.903Z,61.66
2017-02-06T16:52:08.264Z,61.68
2017-02-06T16:54:20.588Z,61.7
2017-02-06T16:56:32.733Z,61.75
2017-02-06T16:58:46.199Z,61.77
2017-02-06T17:00:58.381Z,61.75
2017-02-06T17:03:11.472Z,61.78
2017-02-06T17:05:23.770Z,61.81
2017-02-06T17:07:36.153Z,61.85
2017-02-06T17:09:48.408Z,61.87
2017-02-06T17:12:00.895Z,61.87
2017-02-06T17:14:13.413Z,61.88
2017-02-06T17:16:25.836Z,61.9
2017-02-06T17:18:38.028Z,61.91
2017-02-06T17:20:50.433Z,61.91
2017-02-06T17:23:02.751Z,61.93
2017-02-06T17:25:15.107Z,61.98
2017-02-06T17:27:22.329Z,62.04
2017-02-06T17:29:34.684Z,62.1
2017-02-06T17:31:42.002Z,62.14
2017-02-06T17:33:54.232Z,62.1
2017-02-06T17:36:06.621Z,62.07
2017-02-06T17:38:18.825Z,62.03
2017-02-06T17:40:31.260Z,62
2017-02-06T17:42:43.824Z,62
2017-02-06T17:44:56.122Z,62.01
2017-02-06T17:47:08.347Z,62.01
2017-02-06T17:49:20.685Z,62.04
2017-02-06T17:51:32.884Z,62.04
2017-02-06T17:53:45.170Z,62.07
2017-02-06T17:55:57.451Z,62.11
2017-02-06T17:58:09.687Z,62.13
2017-02-06T18:00:22.013Z,62.13
2017-02-06T18:02:34.326Z,62.14
2017-02-06T18:04:46.688Z,62.15
2017-02-06T18:06:58.861Z,62.1
2017-02-06T18:09:11.027Z,62
2017-02-06T18:11:23.273Z,61.92
2017-02-06T18:13:35.654Z,61.81
2017-02-06T18:15:42.982Z,61.68
2017-02-06T18:17:55.169Z,61.57
2017-02-06T18:20:07.501Z,61.45
2017-02-06T18:22:19.762Z,61.43
2017-02-06T18:24:32.332Z,61.42
2017-02-06T18:26:44.543Z,61.38
2017-02-06T18:28:56.711Z,61.37
2017-02-06T18:31:09.042Z,61.39
2017-02-06T18:33:21.317Z,61.42
2017-02-06T18:35:33.700Z,61.37
2017-02-06T18:37:46.191Z,61.29
2017-02-06T18:39:58.806Z,61.21
2017-02-06T18:42:11.326Z,61.11
2017-02-06T18:44:25.851Z,60.94
2017-02-06T18:46:38.151Z,60.82
2017-02-06T18:48:50.422Z,60.68
2017-02-06T18:51:02.910Z,60.59
2017-02-06T18:53:15.118Z,60.53
2017-02-06T18:55:27.396Z,60.52
2017-02-06T18:57:39.641Z,60.52
2017-02-06T18:59:52.018Z,60.51
2017-02-06T19:02:04.281Z,60.48
2017-02-06T19:04:16.841Z,60.46
2017-02-06T19:06:29.257Z,60.46
2017-02-06T19:08:41.500Z,60.47
2017-02-06T19:10:53.855Z,60.43
2017-02-06T19:13:06.135Z,60.41
2017-02-06T19:15:18.410Z,60.39
2017-02-06T19:17:30.827Z,60.36
2017-02-06T19:19:43.085Z,60.35
2017-02-06T19:21:55.912Z,60.36
2017-02-06T19:24:09.474Z,60.34
2017-02-06T19:26:21.845Z,60.33
2017-02-06T19:28:34.671Z,60.34
2017-02-06T19:30:46.989Z,60.38
2017-02-06T19:32:59.465Z,60.38
2017-02-06T19:35:11.736Z,60.35
2017-02-06T19:37:24.312Z,60.38
2017-02-06T19:39:36.793Z,60.39
2017-02-06T19:41:49.143Z,60.41
2017-02-06T19:44:01.691Z,60.45
2017-02-06T19:46:14.127Z,60.44
2017-02-06T19:48:26.599Z,60.48
2017-02-06T19:50:39.547Z,60.55
2017-02-06T19:52:52.768Z,60.61
2017-02-06T19:55:05.187Z,60.72
2017-02-06T19:57:17.780Z,60.82
2017-02-06T19:59:30.405Z,60.88
2017-02-06T20:01:37.846Z,60.92
2017-02-06T20:03:50.216Z,60.92
2017-02-06T20:06:02.535Z,60.86
2017-02-06T20:08:14.868Z,60.79
2017-02-06T20:10:27.253Z,60.77
2017-02-06T20:12:39.528Z,60.72
2017-02-06T20:14:51.910Z,60.65
2017-02-06T20:17:04.578Z,60.62
2017-02-06T20:19:16.955Z,60.61
2017-02-06T20:21:29.502Z,60.59
2017-02-06T20:23:41.811Z,60.58
2017-02-06T20:25:54.217Z,60.53
2017-02-06T20:28:06.895Z,60.52
2017-02-06T20:30:19.682Z,60.49
2017-02-06T20:32:33.139Z,60.49
2017-02-06T20:34:45.716Z,60.51
2017-02-06T20:36:58.453Z,60.53
2017-02-06T20:39:10.981Z,60.53
2017-02-06T20:41:23.776Z,60.51
2017-02-06T20:43:37.653Z,60.47
2017-02-06T20:45:50.092Z,60.45
2017-02-06T20:47:57.610Z,60.43
2017-02-06T20:50:10.134Z,60.44
2017-02-06T20:52:22.812Z,60.44
2017-02-06T20:54:35.215Z,60.44
2017-02-06T20:56:47.403Z,60.42
2017-02-06T20:58:59.946Z,60.37
2017-02-06T21:01:12.253Z,60.4
2017-02-06T21:03:24.894Z,60.38
2017-02-06T21:05:47.187Z,60.43
2017-02-06T21:07:59.788Z,60.45
2017-02-06T21:10:12.493Z,60.42
2017-02-06T21:12:25.048Z,60.43
2017-02-06T21:14:37.523Z,60.44
2017-02-06T21:16:49.725Z,60.46
2017-02-06T21:19:02.076Z,60.45
2017-02-06T21:21:14.377Z,60.49
2017-02-06T21:23:26.674Z,60.5
2017-02-06T21:25:33.906Z,60.53
2017-02-06T21:27:46.600Z,60.52
2017-02-06T21:29:58.842Z,60.56
2017-02-06T21:32:06.084Z,60.58
2017-02-06T21:34:18.462Z,60.56
2017-02-06T21:36:25.770Z,60.53
2017-02-06T21:39:17.072Z,60.52
2017-02-06T21:40:35.772Z,60.55
2017-02-06T21:42:48.334Z,60.52
2017-02-06T21:45:04.632Z,60.51
2017-02-06T21:47:17.451Z,60.53
2017-02-06T21:49:25.026Z,60.51
2017-02-06T21:51:40.281Z,60.5
2017-02-06T21:53:52.604Z,60.49
2017-02-06T21:56:04.977Z,60.51
2017-02-06T21:58:12.265Z,60.52
2017-02-06T22:00:24.489Z,60.55
2017-02-06T22:02:37.026Z,60.57
2017-02-06T22:04:49.482Z,60.55
2017-02-06T22:07:01.638Z,60.57
2017-02-06T22:09:14.013Z,60.58
2017-02-06T22:11:26.447Z,60.58
2017-02-06T22:13:38.718Z,60.62
2017-02-06T22:15:49.396Z,60.61
2017-02-06T22:18:01.800Z,60.63
2017-02-06T22:20:13.970Z,60.59
2017-02-06T22:22:26.179Z,60.59
2017-02-06T22:24:38.505Z,60.61
2017-02-06T22:26:50.697Z,60.62
2017-02-06T22:29:02.930Z,60.69
2017-02-06T22:31:15.099Z,60.7
2017-02-06T22:33:27.350Z,60.69
2017-02-06T22:35:34.639Z,60.68
2017-02-06T22:37:46.996Z,60.7
2017-02-06T22:39:59.289Z,60.67
2017-02-06T22:42:11.564Z,60.61
2017-02-06T22:44:23.833Z,60.6
2017-02-06T22:46:36.072Z,60.59
2017-02-06T22:48:48.570Z,60.58
2017-02-06T22:51:00.937Z,60.59
2017-02-06T22:53:13.356Z,60.66
2017-02-06T22:55:25.749Z,60.68
2017-02-06T22:57:37.907Z,60.67
2017-02-06T22:59:50.542Z,60.7
2017-02-06T23:02:03.234Z,60.75
2017-02-06T23:04:10.700Z,60.78
2017-02-06T23:06:22.877Z,60.75
2017-02-06T23:08:35.098Z,60.73
2017-02-06T23:10:47.346Z,60.7
2017-02-06T23:12:59.480Z,60.72
2017-02-06T23:15:11.598Z,60.69
2017-02-06T23:17:23.871Z,60.7
2017-02-06T23:19:36.171Z,60.72
2017-02-06T23:21:48.434Z,60.71
2017-02-06T23:24:00.583Z,60.68
2017-02-06T23:26:12.824Z,60.66
2017-02-06T23:28:25.644Z,60.71
2017-02-06T23:30:38.096Z,60.7
2017-02-06T23:32:50.378Z,60.7
2017-02-06T23:34:57.664Z,60.71
2017-02-06T23:37:09.889Z,60.74
2017-02-06T23:39:22.302Z,60.76
2017-02-06T23:41:34.539Z,60.75
2017-02-06T23:43:46.709Z,60.78
2017-02-06T23:45:58.886Z,60.78
2017-02-06T23:48:11.217Z,60.8
2017-02-06T23:50:23.430Z,60.8
2017-02-06T23:52:35.636Z,60.8
2017-02-06T23:54:47.912Z,60.8
2017-02-06T23:57:05.629Z,60.8
2017-02-06T23:59:18.003Z,60.79
